Time,TemperatureF,DewpointF,PressureIn,WindDirection,WindDirectionDegrees,WindSpeedMPH,WindSpeedGustMPH,Humidity,HourlyPrecipIn,Conditions,Clouds,dailyrainin,SolarRadiationWatts/m^2,SoftwareType,DateUTC
2013-03-14 00:02:00,48.0,31.0,-100.00,SSE,153,2.0,6.0,51,-99.99,,,0.00,0.000000,,2013-03-14 06:02:00,
2013-03-14 00:12:00,48.0,31.0,-100.00,SSE,153,2.0,6.0,51,-99.99,,,0.00,0.000000,,2013-03-14 06:12:00,
2013-03-14 00:42:00,46.0,30.0,-100.00,SE,145,4.0,7.0,54,-99.99,,,0.00,0.000000,,2013-03-14 06:42:00,
2013-03-14 00:52:00,46.0,30.0,-100.00,SE,145,4.0,7.0,54,-99.99,,,0.00,0.000000,,2013-03-14 06:52:00,
2013-03-14 01:02:00,46.0,30.0,-100.00,SE,145,4.0,7.0,54,-99.99,,,0.00,0.000000,,2013-03-14 07:02:00,
2013-03-14 01:11:00,46.0,30.0,-100.00,SE,145,4.0,7.0,54,-99.99,,,0.00,0.000000,,2013-03-14 07:11:00,
2013-03-14 01:42:00,42.0,29.0,-100.00,SE,136,1.0,3.0,59,-99.99,,,0.00,0.000000,,2013-03-14 07:42:00,
2013-03-14 01:52:00,42.0,29.0,-100.00,SE,136,1.0,3.0,59,-99.99,,,0.00,0.000000,,2013-03-14 07:52:00,
2013-03-14 02:02:00,42.0,29.0,-100.00,SE,136,1.0,3.0,59,-99.99,,,0.00,0.000000,,2013-03-14 08:02:00,
2013-03-14 02:11:00,42.0,29.0,-100.00,SE,136,1.0,3.0,59,-99.99,,,0.00,0.000000,,2013-03-14 08:11:00,
2013-03-14 02:41:00,41.0,30.0,-100.00,NE,54,1.0,3.0,64,-99.99,,,0.00,0.000000,,2013-03-14 08:41:00,
2013-03-14 02:52:00,41.0,30.0,-100.00,NE,54,1.0,3.0,64,-99.99,,,0.00,0.000000,,2013-03-14 08:52:00,
2013-03-14 03:01:00,41.0,30.0,-100.00,NE,54,1.0,3.0,64,-99.99,,,0.00,0.000000,,2013-03-14 09:01:00,
2013-03-14 03:42:00,38.0,29.0,-100.00,NE,56,1.0,3.0,69,-99.99,,,0.00,0.000000,,2013-03-14 09:42:00,
2013-03-14 03:52:00,38.0,29.0,-100.00,NE,56,1.0,3.0,69,-99.99,,,0.00,0.000000,,2013-03-14 09:52:00,
2013-03-14 04:02:00,38.0,29.0,-100.00,NE,56,1.0,3.0,69,-99.99,,,0.00,0.000000,,2013-03-14 10:02:00,
2013-03-14 04:12:00,38.0,29.0,-100.00,NE,56,1.0,3.0,69,-99.99,,,0.00,0.000000,,2013-03-14 10:12:00,
2013-03-14 04:42:00,40.0,28.0,-100.00,SSE,154,2.0,5.0,61,-99.99,,,0.00,0.000000,,2013-03-14 10:42:00,
2013-03-14 04:52:00,40.0,28.0,-100.00,SSE,154,2.0,5.0,61,-99.99,,,0.00,0.000000,,2013-03-14 10:52:00,
2013-03-14 05:02:00,40.0,28.0,-100.00,SSE,154,2.0,5.0,61,-99.99,,,0.00,0.000000,,2013-03-14 11:02:00,
2013-03-14 05:12:00,40.0,28.0,-100.00,SSE,154,2.0,5.0,61,-99.99,,,0.00,0.000000,,2013-03-14 11:12:00,
2013-03-14 05:42:00,40.0,28.0,-100.00,SSE,166,1.0,4.0,63,-99.99,,,0.00,0.000000,,2013-03-14 11:42:00,
2013-03-14 05:52:00,40.0,28.0,-100.00,SSE,166,1.0,4.0,63,-99.99,,,0.00,0.000000,,2013-03-14 11:52:00,
2013-03-14 06:02:00,40.0,28.0,-100.00,SSE,166,1.0,4.0,63,-99.99,,,0.00,0.000000,,2013-03-14 12:02:00,
2013-03-14 06:12:00,40.0,28.0,-100.00,SSE,166,1.0,4.0,63,-99.99,,,0.00,0.000000,,2013-03-14 12:12:00,
2013-03-14 06:42:00,39.0,29.0,-100.00,ESE,114,4.0,7.0,65,-99.99,,,0.00,0.000000,,2013-03-14 12:42:00,
2013-03-14 06:52:00,39.0,29.0,-100.00,ESE,114,4.0,7.0,65,-99.99,,,0.00,0.000000,,2013-03-14 12:52:00,
2013-03-14 07:02:00,39.0,29.0,-100.00,ESE,114,4.0,7.0,65,-99.99,,,0.00,0.000000,,2013-03-14 13:02:00,
2013-03-14 07:12:00,39.0,29.0,-100.00,ESE,114,4.0,7.0,65,-99.99,,,0.00,0.000000,,2013-03-14 13:12:00,
2013-03-14 07:32:00,36.0,28.0,-100.00,East,97,2.0,4.0,73,-99.99,,,0.00,0.000000,,2013-03-14 13:32:00,
2013-03-14 07:42:00,36.0,28.0,-100.00,East,97,2.0,4.0,73,-99.99,,,0.00,0.000000,,2013-03-14 13:42:00,
2013-03-14 07:52:00,36.0,28.0,-100.00,East,97,2.0,4.0,73,-99.99,,,0.00,0.000000,,2013-03-14 13:52:00,
2013-03-14 08:02:00,36.0,28.0,-100.00,East,97,2.0,4.0,73,-99.99,,,0.00,0.000000,,2013-03-14 14:02:00,
2013-03-14 08:12:00,36.0,28.0,-100.00,East,97,2.0,4.0,73,-99.99,,,0.00,0.000000,,2013-03-14 14:12:00,
2013-03-14 08:42:00,38.0,29.0,-100.00,SE,136,5.0,7.0,68,-99.99,,,0.00,15.920000,,2013-03-14 14:42:00,
2013-03-14 08:53:00,38.0,29.0,-100.00,SE,136,5.0,7.0,68,-99.99,,,0.00,15.920000,,2013-03-14 14:53:00,
2013-03-14 09:02:00,38.0,29.0,-100.00,SE,136,5.0,7.0,68,-99.99,,,0.00,15.920000,,2013-03-14 15:02:00,
2013-03-14 09:12:00,38.0,29.0,-100.00,SE,136,5.0,7.0,68,-99.99,,,0.00,15.920000,,2013-03-14 15:12:00,
2013-03-14 11:42:00,54.0,30.0,-100.00,SSW,212,3.0,7.0,39,-99.99,,,0.00,364.000000,,2013-03-14 17:42:00,
2013-03-14 11:52:00,54.0,30.0,-100.00,SSW,212,3.0,7.0,39,-99.99,,,0.00,364.000000,,2013-03-14 17:52:00,
2013-03-14 12:02:00,54.0,30.0,-100.00,SSW,212,3.0,7.0,39,-99.99,,,0.00,364.000000,,2013-03-14 18:02:00,
2013-03-14 12:12:00,54.0,30.0,-100.00,SSW,212,3.0,7.0,39,-99.99,,,0.00,364.000000,,2013-03-14 18:12:00,
2013-03-14 12:42:00,58.0,32.0,-100.00,WNW,301,3.0,7.0,38,-99.99,,,0.00,463.140015,,2013-03-14 18:42:00,
2013-03-14 12:52:00,58.0,32.0,-100.00,WNW,301,3.0,7.0,38,-99.99,,,0.00,463.140015,,2013-03-14 18:52:00,
2013-03-14 13:02:00,58.0,32.0,-100.00,WNW,301,3.0,7.0,38,-99.99,,,0.00,463.140015,,2013-03-14 19:02:00,
2013-03-14 13:12:00,58.0,32.0,-100.00,WNW,301,3.0,7.0,38,-99.99,,,0.00,463.140015,,2013-03-14 19:12:00,
2013-03-14 14:42:00,67.0,28.0,-100.00,South,185,5.0,13.0,22,-99.99,,,0.00,350.750000,,2013-03-14 20:42:00,
2013-03-14 14:52:00,67.0,28.0,-100.00,South,185,5.0,13.0,22,-99.99,,,0.00,350.750000,,2013-03-14 20:52:00,
2013-03-14 15:02:00,67.0,28.0,-100.00,South,185,5.0,13.0,22,-99.99,,,0.00,350.750000,,2013-03-14 21:02:00,
2013-03-14 15:12:00,67.0,28.0,-100.00,South,185,5.0,13.0,22,-99.99,,,0.00,350.750000,,2013-03-14 21:12:00,
2013-03-14 15:43:00,69.0,26.0,-100.00,South,186,4.0,16.0,20,-99.99,,,0.00,475.570007,,2013-03-14 21:43:00,
2013-03-14 15:53:00,69.0,26.0,-100.00,South,186,4.0,16.0,20,-99.99,,,0.00,475.570007,,2013-03-14 21:53:00,
2013-03-14 16:03:00,69.0,26.0,-100.00,South,186,4.0,16.0,20,-99.99,,,0.00,475.570007,,2013-03-14 22:03:00,
2013-03-14 16:12:00,69.0,26.0,-100.00,South,186,4.0,16.0,20,-99.99,,,0.00,475.570007,,2013-03-14 22:12:00,
2013-03-14 16:42:00,69.0,23.0,-100.00,West,264,10.0,21.0,17,-99.99,,,0.00,610.500000,,2013-03-14 22:42:00,
2013-03-14 16:52:00,69.0,23.0,-100.00,West,264,10.0,21.0,17,-99.99,,,0.00,610.500000,,2013-03-14 22:52:00,
2013-03-14 17:02:00,69.0,23.0,-100.00,West,264,10.0,21.0,17,-99.99,,,0.00,610.500000,,2013-03-14 23:02:00,
2013-03-14 17:11:00,69.0,23.0,-100.00,West,264,10.0,21.0,17,-99.99,,,0.00,610.500000,,2013-03-14 23:11:00,
2013-03-14 17:42:00,67.0,22.0,-100.00,WSW,249,6.0,13.0,18,-99.99,,,0.00,205.130005,,2013-03-14 23:42:00,
2013-03-14 17:53:00,67.0,22.0,-100.00,WSW,249,6.0,13.0,18,-99.99,,,0.00,205.130005,,2013-03-14 23:53:00,
2013-03-14 18:02:00,67.0,22.0,-100.00,WSW,249,6.0,13.0,18,-99.99,,,0.00,205.130005,,2013-03-15 00:02:00,
2013-03-14 18:12:00,67.0,22.0,-100.00,WSW,249,6.0,13.0,18,-99.99,,,0.00,205.130005,,2013-03-15 00:12:00,
2013-03-14 18:42:00,67.0,24.0,-100.00,WSW,244,3.0,8.0,19,-99.99,,,0.00,204.429993,,2013-03-15 00:42:00,
2013-03-14 18:52:00,67.0,24.0,-100.00,WSW,244,3.0,8.0,19,-99.99,,,0.00,204.429993,,2013-03-15 00:52:00,
2013-03-14 19:02:00,67.0,24.0,-100.00,WSW,244,3.0,8.0,19,-99.99,,,0.00,204.429993,,2013-03-15 01:02:00,
2013-03-14 19:11:00,67.0,24.0,-100.00,WSW,244,3.0,8.0,19,-99.99,,,0.00,204.429993,,2013-03-15 01:11:00,
2013-03-14 19:32:00,61.0,25.0,-100.00,SSE,168,2.0,6.0,25,-99.99,,,0.00,29.639999,,2013-03-15 01:32:00,
2013-03-14 19:42:00,61.0,25.0,-100.00,SSE,168,2.0,6.0,25,-99.99,,,0.00,29.639999,,2013-03-15 01:42:00,
2013-03-14 19:52:00,61.0,25.0,-100.00,SSE,168,2.0,6.0,25,-99.99,,,0.00,29.639999,,2013-03-15 01:52:00,
2013-03-14 20:02:00,61.0,25.0,-100.00,SSE,168,2.0,6.0,25,-99.99,,,0.00,29.639999,,2013-03-15 02:02:00,
2013-03-14 20:12:00,61.0,25.0,-100.00,SSE,168,2.0,6.0,25,-99.99,,,0.00,29.639999,,2013-03-15 02:12:00,
2013-03-14 20:42:00,53.0,28.0,-100.00,South,173,2.0,6.0,37,-99.99,,,0.00,0.000000,,2013-03-15 02:42:00,
2013-03-14 20:52:00,53.0,28.0,-100.00,South,173,2.0,6.0,37,-99.99,,,0.00,0.000000,,2013-03-15 02:52:00,
2013-03-14 21:02:00,53.0,28.0,-100.00,South,173,2.0,6.0,37,-99.99,,,0.00,0.000000,,2013-03-15 03:02:00,
2013-03-14 21:11:00,53.0,28.0,-100.00,South,173,2.0,6.0,37,-99.99,,,0.00,0.000000,,2013-03-15 03:11:00,
2013-03-14 21:42:00,49.0,27.0,-100.00,SSE,148,3.0,6.0,42,-99.99,,,0.00,0.000000,,2013-03-15 03:42:00,
2013-03-14 21:53:00,49.0,27.0,-100.00,SSE,148,3.0,6.0,42,-99.99,,,0.00,0.000000,,2013-03-15 03:53:00,
2013-03-14 22:03:00,49.0,27.0,-100.00,SSE,148,3.0,6.0,42,-99.99,,,0.00,0.000000,,2013-03-15 04:03:00,
2013-03-14 22:12:00,49.0,27.0,-100.00,SSE,148,3.0,6.0,42,-99.99,,,0.00,0.000000,,2013-03-15 04:12:00,
2013-03-14 22:32:00,50.0,27.0,-100.00,East,84,3.0,5.0,41,-99.99,,,0.00,0.000000,,2013-03-15 04:32:00,
2013-03-14 22:42:00,50.0,27.0,-100.00,East,84,3.0,5.0,41,-99.99,,,0.00,0.000000,,2013-03-15 04:42:00,
2013-03-14 22:53:00,50.0,27.0,-100.00,East,84,3.0,5.0,41,-99.99,,,0.00,0.000000,,2013-03-15 04:53:00,
2013-03-14 23:02:00,50.0,27.0,-100.00,East,84,3.0,5.0,41,-99.99,,,0.00,0.000000,,2013-03-15 05:02:00,
2013-03-14 23:12:00,50.0,27.0,-100.00,East,84,3.0,5.0,41,-99.99,,,0.00,0.000000,,2013-03-15 05:12:00,
2013-03-14 23:42:00,48.0,26.0,-100.00,East,100,2.0,5.0,41,-99.99,,,0.00,0.000000,,2013-03-15 05:42:00,
2013-03-14 23:52:00,48.0,26.0,-100.00,East,100,2.0,5.0,41,-99.99,,,0.00,0.000000,,2013-03-15 05:52:00,